createdAt,value
2023-02-26T00:00:38.014Z,1003.8
2023-02-26T00:01:38.008Z,1003.83
2023-02-26T00:02:37.996Z,1003.9
2023-02-26T00:03:37.975Z,1003.94
2023-02-26T00:04:37.972Z,1003.92
2023-02-26T00:05:37.959Z,1003.95
2023-02-26T00:06:37.938Z,1003.99
2023-02-26T00:07:37.934Z,1003.97
2023-02-26T00:08:37.920Z,1003.91
2023-02-26T00:09:37.912Z,1003.99
2023-02-26T00:10:37.902Z,1003.94
2023-02-26T00:11:37.890Z,1004.03
2023-02-26T00:12:37.880Z,1004.02
2023-02-26T00:13:37.894Z,1004.05
2023-02-26T00:14:37.858Z,1004.03
2023-02-26T00:15:37.846Z,1004.09
2023-02-26T00:16:37.857Z,1004.12
2023-02-26T00:17:37.832Z,1004.13
2023-02-26T00:18:37.819Z,1004.14
2023-02-26T00:19:37.811Z,1004.19
2023-02-26T00:20:37.796Z,1004.12
2023-02-26T00:21:37.785Z,1004.16
2023-02-26T00:22:37.785Z,1004.22
2023-02-26T00:23:37.772Z,1004.24
2023-02-26T00:24:37.757Z,1004.22
2023-02-26T00:25:37.743Z,1004.17
2023-02-26T00:26:37.756Z,1004.21
2023-02-26T00:27:37.728Z,1004.28
2023-02-26T00:28:37.715Z,1004.25
2023-02-26T00:29:37.715Z,1004.25
2023-02-26T00:30:37.692Z,1004.29
2023-02-26T00:31:37.757Z,1004.23
2023-02-26T00:32:37.671Z,1004.3
2023-02-26T00:33:37.677Z,1004.21
2023-02-26T00:34:37.656Z,1004.24
2023-02-26T00:35:37.643Z,1004.25
2023-02-26T00:36:37.632Z,1004.29
2023-02-26T00:37:37.625Z,1004.32
2023-02-26T00:38:37.608Z,1004.35
2023-02-26T00:39:37.611Z,1004.36
2023-02-26T00:40:37.590Z,1004.37
2023-02-26T00:41:37.580Z,1004.38
2023-02-26T00:42:37.570Z,1004.37
2023-02-26T00:43:37.568Z,1004.37
2023-02-26T00:44:37.546Z,1004.43
2023-02-26T00:45:37.539Z,1004.42
2023-02-26T00:46:37.552Z,1004.41
2023-02-26T00:47:37.525Z,1004.42
2023-02-26T00:48:37.510Z,1004.51
2023-02-26T00:49:37.503Z,1004.52
2023-02-26T00:50:37.489Z,1004.55
2023-02-26T00:51:37.473Z,1004.51
2023-02-26T00:52:37.469Z,1004.55
2023-02-26T00:53:37.462Z,1004.53
2023-02-26T00:54:37.444Z,1004.61
2023-02-26T00:55:37.440Z,1004.58
2023-02-26T00:56:37.426Z,1004.62
2023-02-26T00:57:37.414Z,1004.63
2023-02-26T00:58:37.414Z,1004.65
2023-02-26T00:59:37.391Z,1004.62
2023-02-26T01:00:37.388Z,1004.6
2023-02-26T01:01:37.386Z,1004.69
2023-02-26T01:02:37.368Z,1004.66
2023-02-26T01:03:37.360Z,1004.64
2023-02-26T01:04:37.350Z,1004.64
2023-02-26T01:05:37.327Z,1004.66
2023-02-26T01:06:37.321Z,1004.69
2023-02-26T01:07:37.312Z,1004.71
2023-02-26T01:08:37.326Z,1004.62
2023-02-26T01:09:37.291Z,1004.68
2023-02-26T01:10:37.288Z,1004.66
2023-02-26T01:11:37.267Z,1004.72
2023-02-26T01:12:37.270Z,1004.67
2023-02-26T01:13:37.244Z,1004.75
2023-02-26T01:14:37.241Z,1004.68
2023-02-26T01:15:37.233Z,1004.72
2023-02-26T01:16:37.215Z,1004.72
2023-02-26T01:17:37.218Z,1004.73
2023-02-26T01:18:37.200Z,1004.69
2023-02-26T01:19:37.186Z,1004.7
2023-02-26T01:20:37.178Z,1004.71
2023-02-26T01:21:37.189Z,1004.68
2023-02-26T01:22:37.153Z,1004.68
2023-02-26T01:23:37.154Z,1004.69
2023-02-26T01:24:37.135Z,1004.69
2023-02-26T01:25:37.123Z,1004.7
2023-02-26T01:26:37.110Z,1004.73
2023-02-26T01:27:37.103Z,1004.69
2023-02-26T01:28:37.105Z,1004.77
2023-02-26T01:29:37.087Z,1004.78
2023-02-26T01:30:37.088Z,1004.81
2023-02-26T01:31:37.079Z,1004.75
2023-02-26T01:32:37.102Z,1004.83
2023-02-26T01:33:37.045Z,1004.81
2023-02-26T01:34:37.032Z,1004.81
2023-02-26T01:35:37.018Z,1004.81
2023-02-26T01:36:37.106Z,1004.78
2023-02-26T01:37:37.015Z,1004.87
2023-02-26T01:38:36.990Z,1004.8
2023-02-26T01:39:36.976Z,1004.88
2023-02-26T01:40:36.964Z,1004.89
2023-02-26T01:41:36.960Z,1004.88
2023-02-26T01:42:36.954Z,1004.9
2023-02-26T01:43:36.936Z,1004.86
2023-02-26T01:44:36.948Z,1004.9
2023-02-26T01:45:36.912Z,1004.85
2023-02-26T01:46:36.904Z,1004.93
2023-02-26T01:47:36.894Z,1004.89
2023-02-26T01:48:36.888Z,1004.86
2023-02-26T01:49:36.889Z,1004.82
2023-02-26T01:50:36.865Z,1004.84
2023-02-26T01:51:36.881Z,1004.8
2023-02-26T01:52:36.843Z,1004.85
2023-02-26T01:53:36.837Z,1004.79
2023-02-26T01:54:36.835Z,1004.8
2023-02-26T01:55:36.812Z,1004.84
2023-02-26T01:56:36.800Z,1004.88
2023-02-26T01:57:36.789Z,1004.9
2023-02-26T01:58:36.780Z,1004.89
2023-02-26T01:59:36.768Z,1004.9
2023-02-26T02:00:36.797Z,1004.88
2023-02-26T02:01:36.749Z,1004.86
2023-02-26T02:02:36.787Z,1004.93
2023-02-26T02:03:36.730Z,1004.99
2023-02-26T02:04:36.728Z,1004.98
2023-02-26T02:05:36.711Z,1004.95
2023-02-26T02:06:36.699Z,1004.96
2023-02-26T02:07:36.692Z,1005
2023-02-26T02:08:36.678Z,1004.99
2023-02-26T02:09:36.664Z,1004.97
2023-02-26T02:10:36.671Z,1005
2023-02-26T02:11:36.644Z,1005.04
2023-02-26T02:12:36.634Z,1005.06
2023-02-26T02:13:36.639Z,1005.05
2023-02-26T02:14:36.611Z,1005.08
2023-02-26T02:15:36.610Z,1005.06
2023-02-26T02:16:36.638Z,1005.08
2023-02-26T02:17:36.586Z,1005.08
2023-02-26T02:18:36.570Z,1005.09
2023-02-26T02:19:36.577Z,1005.12
2023-02-26T02:20:36.553Z,1005.08
2023-02-26T02:21:36.539Z,1005.11
2023-02-26T02:22:36.537Z,1005.13
2023-02-26T02:23:36.520Z,1005.14
2023-02-26T02:24:36.511Z,1005.15
2023-02-26T02:25:36.520Z,1005.19
2023-02-26T02:26:36.490Z,1005.2
2023-02-26T02:27:36.482Z,1005.2
2023-02-26T02:28:36.465Z,1005.29
2023-02-26T02:29:36.473Z,1005.21
2023-02-26T02:30:36.452Z,1005.24
2023-02-26T02:31:36.440Z,1005.27
2023-02-26T02:32:36.428Z,1005.27
2023-02-26T02:33:36.429Z,1005.33
2023-02-26T02:34:36.407Z,1005.35
2023-02-26T02:35:36.395Z,1005.34
2023-02-26T02:36:36.387Z,1005.36
2023-02-26T02:37:36.384Z,1005.39
2023-02-26T02:38:36.361Z,1005.35
2023-02-26T02:39:36.356Z,1005.4
2023-02-26T02:40:36.342Z,1005.36
2023-02-26T02:41:36.340Z,1005.42
2023-02-26T02:42:36.323Z,1005.39
2023-02-26T02:43:36.314Z,1005.45
2023-02-26T02:44:36.299Z,1005.46
2023-02-26T02:45:36.295Z,1005.45
2023-02-26T02:46:36.281Z,1005.52
2023-02-26T02:47:36.285Z,1005.44
2023-02-26T02:48:36.279Z,1005.51
2023-02-26T02:49:36.249Z,1005.55
2023-02-26T02:50:36.243Z,1005.54
2023-02-26T02:51:36.238Z,1005.48
2023-02-26T02:52:36.223Z,1005.48
2023-02-26T02:53:36.208Z,1005.46
2023-02-26T02:54:36.216Z,1005.5
2023-02-26T02:55:36.188Z,1005.49
2023-02-26T02:56:36.178Z,1005.51
2023-02-26T02:57:36.167Z,1005.51
2023-02-26T02:58:36.156Z,1005.56
2023-02-26T02:59:36.156Z,1005.55
2023-02-26T03:00:36.134Z,1005.6
2023-02-26T03:01:36.130Z,1005.54
2023-02-26T03:02:36.122Z,1005.56
2023-02-26T03:03:36.131Z,1005.51
2023-02-26T03:04:36.100Z,1005.51
2023-02-26T03:05:36.088Z,1005.62
2023-02-26T03:06:36.071Z,1005.58
2023-02-26T03:07:36.064Z,1005.66
2023-02-26T03:08:36.056Z,1005.59
2023-02-26T03:09:36.041Z,1005.6
2023-02-26T03:10:36.037Z,1005.66
2023-02-26T03:11:36.033Z,1005.64
2023-02-26T03:12:36.011Z,1005.7
2023-02-26T03:13:36.001Z,1005.7
2023-02-26T03:14:36.009Z,1005.68
2023-02-26T03:15:35.983Z,1005.8
2023-02-26T03:16:35.992Z,1005.72
2023-02-26T03:17:35.970Z,1005.72
2023-02-26T03:18:35.952Z,1005.76
2023-02-26T03:19:35.938Z,1005.77
2023-02-26T03:20:35.937Z,1005.82
2023-02-26T03:21:35.936Z,1005.84
2023-02-26T03:22:35.924Z,1005.86
2023-02-26T03:23:35.899Z,1005.84
2023-02-26T03:24:35.886Z,1005.8
2023-02-26T03:25:35.887Z,1005.85
2023-02-26T03:26:35.891Z,1005.84
2023-02-26T03:27:35.862Z,1005.86
2023-02-26T03:28:35.852Z,1005.91
2023-02-26T03:29:35.859Z,1005.89
2023-02-26T03:30:35.827Z,1005.95
2023-02-26T03:31:35.813Z,1005.96
2023-02-26T03:32:35.809Z,1005.91
2023-02-26T03:33:35.821Z,1005.93
2023-02-26T03:34:35.783Z,1005.98
2023-02-26T03:35:35.784Z,1005.96
2023-02-26T03:36:35.773Z,1005.96
2023-02-26T03:37:35.779Z,1005.89
2023-02-26T03:38:35.748Z,1006
2023-02-26T03:39:35.749Z,1006
2023-02-26T03:40:35.731Z,1006.02
2023-02-26T03:41:35.712Z,1005.97
2023-02-26T03:42:35.704Z,1006.01
2023-02-26T03:43:35.693Z,1005.97
2023-02-26T03:44:35.696Z,1006.03
2023-02-26T03:45:35.672Z,1006.02
2023-02-26T03:46:35.684Z,1006.06
2023-02-26T03:47:35.650Z,1006.1
2023-02-26T03:48:35.649Z,1006.09
2023-02-26T03:49:35.648Z,1006.13
2023-02-26T03:50:35.636Z,1006.15
2023-02-26T03:51:35.632Z,1006.13
2023-02-26T03:52:35.637Z,1006.22
2023-02-26T03:53:35.625Z,1006.19
2023-02-26T03:54:35.577Z,1006.23
2023-02-26T03:55:35.580Z,1006.28
2023-02-26T03:56:35.560Z,1006.28
2023-02-26T03:57:35.554Z,1006.32
2023-02-26T03:58:35.553Z,1006.29
2023-02-26T03:59:35.556Z,1006.29
2023-02-26T04:00:35.516Z,1006.37
2023-02-26T04:01:43.105Z,1006.34
2023-02-26T04:02:35.494Z,1006.38
2023-02-26T04:03:35.483Z,1006.4
2023-02-26T04:04:35.492Z,1006.47
2023-02-26T04:05:43.037Z,1006.43
2023-02-26T04:06:35.456Z,1006.46
2023-02-26T04:07:35.444Z,1006.45
2023-02-26T04:08:35.443Z,1006.46
2023-02-26T04:09:35.423Z,1006.46
2023-02-26T04:10:35.441Z,1006.47
2023-02-26T04:11:35.402Z,1006.52
2023-02-26T04:12:35.394Z,1006.56
2023-02-26T04:13:35.393Z,1006.56
2023-02-26T04:14:35.387Z,1006.54
2023-02-26T04:15:35.374Z,1006.59
2023-02-26T04:16:35.353Z,1006.62
2023-02-26T04:17:35.372Z,1006.62
2023-02-26T04:18:36.930Z,1006.56
2023-02-26T04:19:35.323Z,1006.63
2023-02-26T04:20:35.311Z,1006.61
2023-02-26T04:21:35.308Z,1006.65
2023-02-26T04:22:35.291Z,1006.67
2023-02-26T04:23:35.287Z,1006.69
2023-02-26T04:24:35.297Z,1006.72
2023-02-26T04:25:35.263Z,1006.69
2023-02-26T04:26:35.253Z,1006.73
2023-02-26T04:27:35.247Z,1006.79
2023-02-26T04:28:35.227Z,1006.71
2023-02-26T04:29:35.240Z,1006.83
2023-02-26T04:30:35.210Z,1006.81
2023-02-26T04:31:35.210Z,1006.83
2023-02-26T04:32:35.207Z,1006.77
2023-02-26T04:33:35.232Z,1006.83
2023-02-26T04:34:35.170Z,1006.83
2023-02-26T04:35:35.162Z,1006.81
2023-02-26T04:36:35.225Z,1006.87
2023-02-26T04:37:35.134Z,1006.85
2023-02-26T04:38:35.138Z,1006.9
2023-02-26T04:39:35.141Z,1006.92
2023-02-26T04:40:35.111Z,1006.93
2023-02-26T04:41:35.096Z,1006.98
2023-02-26T04:42:35.109Z,1007.01
2023-02-26T04:43:35.109Z,1006.97
2023-02-26T04:44:35.065Z,1006.95
2023-02-26T04:45:35.077Z,1006.98
2023-02-26T04:46:35.043Z,1006.97
2023-02-26T04:47:35.045Z,1007.08
2023-02-26T04:48:35.043Z,1007.03
2023-02-26T04:49:35.011Z,1007.05
2023-02-26T04:50:35.005Z,1007.08
2023-02-26T04:51:35.006Z,1007.12
2023-02-26T04:52:34.980Z,1007.09
2023-02-26T04:53:34.968Z,1007.07
2023-02-26T04:54:34.961Z,1007.09
2023-02-26T04:55:34.982Z,1007.1
2023-02-26T04:56:34.948Z,1007.07
2023-02-26T04:57:34.952Z,1007.11
2023-02-26T04:58:34.927Z,1007.07
2023-02-26T04:59:34.909Z,1007.06
2023-02-26T05:00:34.907Z,1007.13
2023-02-26T05:01:34.895Z,1007.13
2023-02-26T05:02:34.880Z,1007.16
2023-02-26T05:03:34.868Z,1007.23
2023-02-26T05:04:34.855Z,1007.2
2023-02-26T05:05:34.859Z,1007.24
2023-02-26T05:06:34.839Z,1007.27
2023-02-26T05:07:34.836Z,1007.24
2023-02-26T05:08:34.832Z,1007.27
2023-02-26T05:09:34.812Z,1007.25
2023-02-26T05:10:34.803Z,1007.26
2023-02-26T05:11:34.795Z,1007.32
2023-02-26T05:12:34.791Z,1007.34
2023-02-26T05:13:34.773Z,1007.34
2023-02-26T05:14:34.772Z,1007.41
2023-02-26T05:15:34.747Z,1007.42
2023-02-26T05:16:34.742Z,1007.41
2023-02-26T05:17:34.725Z,1007.37
2023-02-26T05:18:34.713Z,1007.37
2023-02-26T05:19:34.723Z,1007.41
2023-02-26T05:20:34.711Z,1007.46
2023-02-26T05:21:34.687Z,1007.43
2023-02-26T05:22:34.675Z,1007.47
2023-02-26T05:23:34.668Z,1007.47
2023-02-26T05:24:34.729Z,1007.48
2023-02-26T05:25:34.685Z,1007.48
2023-02-26T05:26:34.638Z,1007.49
2023-02-26T05:27:34.624Z,1007.52
2023-02-26T05:28:34.614Z,1007.52
2023-02-26T05:29:34.599Z,1007.48
2023-02-26T05:30:34.596Z,1007.58
2023-02-26T05:31:34.595Z,1007.63
2023-02-26T05:32:34.602Z,1007.6
2023-02-26T05:33:34.558Z,1007.63
2023-02-26T05:34:34.560Z,1007.67
2023-02-26T05:35:34.604Z,1007.71
2023-02-26T05:36:34.533Z,1007.67
2023-02-26T05:37:34.534Z,1007.66
2023-02-26T05:38:34.520Z,1007.7
2023-02-26T05:39:34.506Z,1007.74
2023-02-26T05:40:34.491Z,1007.73
2023-02-26T05:41:34.514Z,1007.77
2023-02-26T05:42:34.469Z,1007.74
2023-02-26T05:43:34.486Z,1007.77
2023-02-26T05:44:34.463Z,1007.79
2023-02-26T05:45:34.448Z,1007.82
2023-02-26T05:46:34.462Z,1007.8
2023-02-26T05:47:34.444Z,1007.84
2023-02-26T05:48:34.453Z,1007.8
2023-02-26T05:49:34.401Z,1007.82
2023-02-26T05:50:34.459Z,1007.89
2023-02-26T05:51:34.391Z,1007.97
2023-02-26T05:52:34.384Z,1007.93
2023-02-26T05:53:34.358Z,1007.94
2023-02-26T05:54:34.347Z,1007.98
2023-02-26T05:55:34.351Z,1008.02
2023-02-26T05:56:34.341Z,1008.01
2023-02-26T05:57:34.312Z,1008.04
2023-02-26T05:58:34.306Z,1008.03
2023-02-26T05:59:34.296Z,1008.07
2023-02-26T06:00:34.280Z,1008.1
2023-02-26T06:01:34.278Z,1008.13
2023-02-26T06:02:34.271Z,1008.1
2023-02-26T06:03:34.256Z,1008.19
2023-02-26T06:04:34.243Z,1008.16
2023-02-26T06:05:34.233Z,1008.23
2023-02-26T06:06:34.236Z,1008.22
2023-02-26T06:07:34.239Z,1008.23
2023-02-26T06:08:34.203Z,1008.28
2023-02-26T06:09:34.192Z,1008.26
2023-02-26T06:10:34.180Z,1008.22
2023-02-26T06:11:34.183Z,1008.29
2023-02-26T06:12:34.169Z,1008.29
2023-02-26T06:13:34.166Z,1008.35
2023-02-26T06:14:34.184Z,1008.36
2023-02-26T06:15:34.128Z,1008.41
2023-02-26T06:16:34.121Z,1008.47
2023-02-26T06:17:34.117Z,1008.51
2023-02-26T06:18:34.121Z,1008.47
2023-02-26T06:19:34.103Z,1008.45
2023-02-26T06:20:34.076Z,1008.49
2023-02-26T06:21:34.065Z,1008.55
2023-02-26T06:22:34.058Z,1008.48
2023-02-26T06:23:34.066Z,1008.6
2023-02-26T06:24:34.051Z,1008.6
2023-02-26T06:25:34.026Z,1008.6
2023-02-26T06:26:34.022Z,1008.65
2023-02-26T06:27:34.014Z,1008.67
2023-02-26T06:28:33.996Z,1008.66
2023-02-26T06:29:33.988Z,1008.69
2023-02-26T06:30:34.003Z,1008.67
2023-02-26T06:31:33.984Z,1008.71
2023-02-26T06:32:33.975Z,1008.73
2023-02-26T06:33:33.943Z,1008.74
2023-02-26T06:34:33.935Z,1008.73
2023-02-26T06:35:33.937Z,1008.82
2023-02-26T06:36:33.915Z,1008.79
2023-02-26T06:37:33.903Z,1008.82
2023-02-26T06:38:33.891Z,1008.85
2023-02-26T06:39:33.879Z,1008.78
2023-02-26T06:40:33.883Z,1008.87
2023-02-26T06:41:33.866Z,1008.84
2023-02-26T06:42:33.851Z,1008.86
2023-02-26T06:43:33.843Z,1008.86
2023-02-26T06:44:33.831Z,1008.89
2023-02-26T06:45:33.859Z,1008.9
2023-02-26T06:46:33.821Z,1008.86
2023-02-26T06:47:33.802Z,1008.92
2023-02-26T06:48:33.801Z,1008.95
2023-02-26T06:49:33.781Z,1008.97
2023-02-26T06:50:33.774Z,1009.05
2023-02-26T06:51:33.757Z,1008.99
2023-02-26T06:52:33.751Z,1009.05
2023-02-26T06:53:33.741Z,1009.01
2023-02-26T06:54:33.746Z,1009.06
2023-02-26T06:55:33.722Z,1009.09
2023-02-26T06:56:33.707Z,1009.11
2023-02-26T06:57:33.705Z,1009.1
2023-02-26T06:58:33.695Z,1009.09
2023-02-26T06:59:33.683Z,1009.08
2023-02-26T07:00:33.670Z,1009.12
2023-02-26T07:01:33.661Z,1009.13
2023-02-26T07:02:33.650Z,1009.15
2023-02-26T07:03:33.644Z,1009.1
2023-02-26T07:04:33.652Z,1009.22
2023-02-26T07:05:33.673Z,1009.19
2023-02-26T07:06:33.610Z,1009.22
2023-02-26T07:07:33.621Z,1009.21
2023-02-26T07:08:33.583Z,1009.22
2023-02-26T07:09:33.578Z,1009.24
2023-02-26T07:10:33.572Z,1009.28
2023-02-26T07:11:33.552Z,1009.31
2023-02-26T07:12:33.547Z,1009.32
2023-02-26T07:13:33.534Z,1009.32
2023-02-26T07:14:33.527Z,1009.38
2023-02-26T07:15:33.529Z,1009.44
2023-02-26T07:16:33.504Z,1009.39
2023-02-26T07:17:33.495Z,1009.35
2023-02-26T07:18:33.495Z,1009.47
2023-02-26T07:19:33.473Z,1009.41
2023-02-26T07:20:33.465Z,1009.49
2023-02-26T07:21:33.471Z,1009.49
2023-02-26T07:22:33.440Z,1009.51
2023-02-26T07:23:33.437Z,1009.47
2023-02-26T07:24:33.430Z,1009.48
2023-02-26T07:25:33.420Z,1009.4
2023-02-26T07:26:33.403Z,1009.47
2023-02-26T07:27:33.395Z,1009.49
2023-02-26T07:28:33.382Z,1009.52
2023-02-26T07:29:33.375Z,1009.49
2023-02-26T07:30:33.372Z,1009.55
2023-02-26T07:31:33.363Z,1009.53
2023-02-26T07:32:33.491Z,1009.57
2023-02-26T07:33:33.330Z,1009.51
2023-02-26T07:34:33.320Z,1009.55
2023-02-26T07:35:33.311Z,1009.55
2023-02-26T07:36:33.299Z,1009.61
2023-02-26T07:37:33.298Z,1009.52
2023-02-26T07:38:33.287Z,1009.61
2023-02-26T07:39:33.274Z,1009.71
2023-02-26T07:40:33.256Z,1009.67
2023-02-26T07:41:33.256Z,1009.66
2023-02-26T07:42:33.266Z,1009.71
2023-02-26T07:43:33.231Z,1009.7
2023-02-26T07:44:33.221Z,1009.82
2023-02-26T07:45:33.210Z,1009.77
2023-02-26T07:46:33.223Z,1009.83
2023-02-26T07:47:33.188Z,1009.8
2023-02-26T07:48:33.202Z,1009.86
2023-02-26T07:49:33.198Z,1009.9
2023-02-26T07:50:33.866Z,1009.91
2023-02-26T07:51:33.866Z,1009.89
2023-02-26T07:52:33.144Z,1009.91
2023-02-26T07:53:33.866Z,1009.86
2023-02-26T07:54:33.113Z,1009.89
2023-02-26T07:55:33.099Z,1009.8
2023-02-26T07:56:33.093Z,1009.82
2023-02-26T07:57:33.088Z,1009.88
2023-02-26T07:58:33.154Z,1009.86
2023-02-26T07:59:33.062Z,1009.84
2023-02-26T08:00:33.048Z,1009.85
2023-02-26T08:01:33.056Z,1009.83
2023-02-26T08:02:33.054Z,1009.87
2023-02-26T08:03:33.018Z,1009.88
2023-02-26T08:04:33.014Z,1009.8
2023-02-26T08:05:32.993Z,1009.9
2023-02-26T08:06:32.993Z,1009.89
2023-02-26T08:07:32.996Z,1009.87
2023-02-26T08:08:32.972Z,1009.94
2023-02-26T08:09:32.983Z,1009.95
2023-02-26T08:10:32.966Z,1009.87
2023-02-26T08:11:32.955Z,1009.89
2023-02-26T08:12:32.936Z,1009.91
2023-02-26T08:13:32.912Z,1009.86
2023-02-26T08:14:32.899Z,1009.86
2023-02-26T08:15:32.891Z,1009.84
2023-02-26T08:16:32.882Z,1009.93
2023-02-26T08:17:32.875Z,1010
2023-02-26T08:18:32.856Z,1010.03
2023-02-26T08:19:32.851Z,1009.99
2023-02-26T08:20:32.845Z,1010.05
2023-02-26T08:21:32.829Z,1010.06
2023-02-26T08:22:32.815Z,1010.14
2023-02-26T08:23:32.839Z,1010.14
2023-02-26T08:24:32.804Z,1010.14
2023-02-26T08:25:32.859Z,1010.21
2023-02-26T08:26:32.773Z,1010.28
2023-02-26T08:27:32.773Z,1010.21
2023-02-26T08:28:32.771Z,1010.28
2023-02-26T08:29:32.784Z,1010.36
2023-02-26T08:30:32.738Z,1010.32
2023-02-26T08:31:32.733Z,1010.45
2023-02-26T08:32:32.719Z,1010.42
2023-02-26T08:33:32.829Z,1010.37
2023-02-26T08:34:32.691Z,1010.44
2023-02-26T08:35:32.683Z,1010.42
2023-02-26T08:36:32.678Z,1010.46
2023-02-26T08:37:32.657Z,1010.44
2023-02-26T08:38:32.655Z,1010.49
2023-02-26T08:39:32.640Z,1010.49
2023-02-26T08:40:32.665Z,1010.5
2023-02-26T08:41:32.623Z,1010.5
2023-02-26T08:42:32.614Z,1010.55
2023-02-26T08:43:32.600Z,1010.55
2023-02-26T08:44:32.676Z,1010.6
2023-02-26T08:45:32.585Z,1010.51
2023-02-26T08:46:32.571Z,1010.52
2023-02-26T08:47:32.564Z,1010.58
2023-02-26T08:48:32.556Z,1010.59
2023-02-26T08:49:32.534Z,1010.48
2023-02-26T08:50:32.530Z,1010.48
2023-02-26T08:51:32.519Z,1010.55
2023-02-26T08:52:32.512Z,1010.56
2023-02-26T08:53:32.506Z,1010.57
2023-02-26T08:54:32.499Z,1010.57
2023-02-26T08:55:32.482Z,1010.62
2023-02-26T08:56:32.473Z,1010.63
2023-02-26T08:57:32.455Z,1010.69
2023-02-26T08:58:32.527Z,1010.59
2023-02-26T08:59:32.450Z,1010.7
2023-02-26T09:00:32.434Z,1010.75
2023-02-26T09:01:32.414Z,1010.68
2023-02-26T09:02:32.403Z,1010.77
2023-02-26T09:03:32.401Z,1010.77
2023-02-26T09:04:32.390Z,1010.76
2023-02-26T09:05:32.385Z,1010.83
2023-02-26T09:06:32.378Z,1010.86
2023-02-26T09:07:32.354Z,1010.85
2023-02-26T09:08:32.340Z,1010.87
2023-02-26T09:09:32.333Z,1010.87
2023-02-26T09:10:32.319Z,1010.88
2023-02-26T09:11:32.353Z,1010.79
2023-02-26T09:12:32.302Z,1010.93
2023-02-26T09:13:32.291Z,1010.87
2023-02-26T09:14:32.278Z,1010.92
2023-02-26T09:15:32.271Z,1010.99
2023-02-26T09:16:32.273Z,1010.97
2023-02-26T09:17:32.245Z,1010.94
2023-02-26T09:18:32.242Z,1010.94
2023-02-26T09:19:32.282Z,1010.98
2023-02-26T09:20:32.222Z,1011.02
2023-02-26T09:21:32.210Z,1010.99
2023-02-26T09:22:32.222Z,1011.01
2023-02-26T09:23:32.192Z,1010.95
2023-02-26T09:24:32.182Z,1011.03
2023-02-26T09:25:32.189Z,1011.06
2023-02-26T09:26:32.194Z,1011.06
2023-02-26T09:27:32.146Z,1011.07
2023-02-26T09:28:32.144Z,1011.1
2023-02-26T09:29:32.144Z,1011.1
2023-02-26T09:30:32.112Z,1011.15
2023-02-26T09:31:32.103Z,1011.1
2023-02-26T09:32:32.102Z,1011.18
2023-02-26T09:33:32.081Z,1011.22
2023-02-26T09:34:32.191Z,1011.19
2023-02-26T09:35:32.084Z,1011.22
2023-02-26T09:36:32.051Z,1011.26
2023-02-26T09:37:32.044Z,1011.21
2023-02-26T09:38:32.048Z,1011.23
2023-02-26T09:39:32.027Z,1011.22
2023-02-26T09:40:32.025Z,1011.24
2023-02-26T09:41:32.008Z,1011.16
2023-02-26T09:42:32.009Z,1011.22
2023-02-26T09:43:31.987Z,1011.25
2023-02-26T09:44:31.971Z,1011.3
2023-02-26T09:45:31.967Z,1011.26
2023-02-26T09:46:31.953Z,1011.23
2023-02-26T09:47:31.946Z,1011.29
2023-02-26T09:48:31.932Z,1011.32
2023-02-26T09:49:31.952Z,1011.34
2023-02-26T09:50:31.937Z,1011.34
2023-02-26T09:51:31.904Z,1011.36
2023-02-26T09:52:31.895Z,1011.34
2023-02-26T09:53:31.885Z,1011.29
2023-02-26T09:54:31.894Z,1011.35
2023-02-26T09:55:31.871Z,1011.36
2023-02-26T09:56:31.855Z,1011.36
2023-02-26T09:57:31.842Z,1011.49
2023-02-26T09:58:31.837Z,1011.38
2023-02-26T09:59:31.829Z,1011.4
2023-02-26T10:00:31.824Z,1011.49
2023-02-26T10:01:31.800Z,1011.41
2023-02-26T10:02:31.802Z,1011.43
2023-02-26T10:03:31.787Z,1011.42
2023-02-26T10:04:31.778Z,1011.39
2023-02-26T10:05:31.758Z,1011.43
2023-02-26T10:06:31.754Z,1011.46
2023-02-26T10:07:39.309Z,1011.43
2023-02-26T10:08:31.725Z,1011.47
2023-02-26T10:09:31.717Z,1011.53
2023-02-26T10:10:31.742Z,1011.52
2023-02-26T10:11:31.697Z,1011.53
2023-02-26T10:12:31.693Z,1011.49
2023-02-26T10:13:31.703Z,1011.5
2023-02-26T10:14:31.660Z,1011.5
2023-02-26T10:15:31.654Z,1011.52
2023-02-26T10:16:31.653Z,1011.52
2023-02-26T10:17:31.646Z,1011.56
2023-02-26T10:18:31.625Z,1011.56
2023-02-26T10:19:31.622Z,1011.55
2023-02-26T10:20:32.404Z,1011.55
2023-02-26T10:21:31.599Z,1011.58
2023-02-26T10:22:31.598Z,1011.61
2023-02-26T10:33:00.244Z,1011.72
2023-02-26T10:34:00.210Z,1011.72
2023-02-26T10:35:00.195Z,1011.78
2023-02-26T10:36:00.188Z,1011.65
2023-02-26T10:37:00.174Z,1011.71
2023-02-26T10:38:00.164Z,1011.67
2023-02-26T10:39:00.157Z,1011.74
2023-02-26T10:40:00.178Z,1011.64
2023-02-26T10:41:00.130Z,1011.64
2023-02-26T10:42:00.137Z,1011.73
2023-02-26T10:43:00.129Z,1011.72
2023-02-26T10:44:00.101Z,1011.73
2023-02-26T10:45:00.102Z,1011.69
2023-02-26T10:46:00.090Z,1011.78
2023-02-26T10:47:00.074Z,1011.79
2023-02-26T10:48:00.060Z,1011.79
2023-02-26T10:49:00.047Z,1011.79
2023-02-26T10:50:00.057Z,1011.81
2023-02-26T10:51:00.027Z,1011.87
2023-02-26T10:52:00.059Z,1011.82
2023-02-26T10:53:00.004Z,1011.76
2023-02-26T10:54:00.008Z,1011.83
2023-02-26T10:55:00.008Z,1011.82
2023-02-26T10:55:59.973Z,1011.79
2023-02-26T10:56:59.962Z,1011.93
2023-02-26T10:57:59.965Z,1011.88
2023-02-26T10:58:59.971Z,1011.89
2023-02-26T10:59:59.951Z,1011.88
2023-02-26T11:00:59.919Z,1011.92
2023-02-26T11:01:59.912Z,1011.92
2023-02-26T11:02:59.909Z,1011.89
2023-02-26T11:03:59.894Z,1011.9
2023-02-26T11:04:59.878Z,1011.94
2023-02-26T11:05:59.888Z,1011.93
2023-02-26T11:06:59.856Z,1011.88
2023-02-26T11:07:59.874Z,1011.92
2023-02-26T11:08:59.837Z,1011.92
2023-02-26T11:09:59.823Z,1011.96
2023-02-26T11:10:59.819Z,1011.9
2023-02-26T11:11:59.807Z,1011.91
2023-02-26T11:12:59.794Z,1011.94
2023-02-26T11:13:59.782Z,1011.87
2023-02-26T11:14:59.771Z,1011.97
2023-02-26T11:15:59.766Z,1011.99
2023-02-26T11:16:59.781Z,1011.88
2023-02-26T11:17:59.739Z,1011.83
2023-02-26T11:18:59.734Z,1011.94
2023-02-26T11:19:59.718Z,1011.88
2023-02-26T11:20:59.737Z,1011.94
2023-02-26T11:21:59.709Z,1011.88
2023-02-26T11:22:59.725Z,1011.91
2023-02-26T11:23:59.678Z,1011.89
2023-02-26T11:24:59.699Z,1011.91
2023-02-26T11:25:59.664Z,1011.87
2023-02-26T11:26:59.642Z,1012.03
2023-02-26T11:27:59.655Z,1012.05
2023-02-26T11:28:59.687Z,1012.01
2023-02-26T11:29:59.615Z,1012.13
2023-02-26T11:30:59.599Z,1012.15
2023-02-26T11:31:59.591Z,1011.6
2023-02-26T11:32:59.581Z,1011.63
2023-02-26T11:33:59.581Z,1011.71
2023-02-26T11:34:59.569Z,1012.19
2023-02-26T11:35:59.582Z,1011.83
2023-02-26T11:36:59.553Z,1011.91
2023-02-26T11:37:59.563Z,1011.67
2023-02-26T11:38:59.520Z,1011.82
2023-02-26T11:39:59.510Z,1011.76
2023-02-26T11:40:59.492Z,1012.09
2023-02-26T11:41:59.492Z,1012.05
2023-02-26T11:42:59.476Z,1012.17
2023-02-26T11:43:59.460Z,1011.68
2023-02-26T11:44:59.465Z,1012.1
2023-02-26T11:45:59.474Z,1012.18
2023-02-26T11:46:59.430Z,1011.77
2023-02-26T11:47:59.421Z,1012.1
2023-02-26T11:48:59.416Z,1011.61
2023-02-26T11:49:59.414Z,1011.66
2023-02-26T11:50:59.480Z,1012.16
2023-02-26T11:51:59.375Z,1011.75
2023-02-26T11:52:59.362Z,1012.21
2023-02-26T11:53:59.354Z,1011.58
2023-02-26T11:54:59.343Z,1011.66
2023-02-26T11:55:59.359Z,1012.18
2023-02-26T11:56:59.320Z,1012.11
2023-02-26T11:57:59.320Z,1012.16
2023-02-26T11:58:59.309Z,1012.11
2023-02-26T11:59:59.290Z,1012.1
2023-02-26T12:00:59.291Z,1012.11
2023-02-26T12:01:59.273Z,1012.18
2023-02-26T12:02:59.292Z,1012.1
2023-02-26T12:03:59.257Z,1012.18
2023-02-26T12:04:59.259Z,1012.1
2023-02-26T12:05:59.227Z,1012.07
2023-02-26T12:06:59.423Z,1012.15
2023-02-26T12:07:59.202Z,1012.13
2023-02-26T12:08:59.248Z,1012.1
2023-02-26T12:09:59.236Z,1012.05
2023-02-26T12:10:59.170Z,1012.15
2023-02-26T12:11:59.161Z,1012.16
2023-02-26T12:12:59.177Z,1012.21
2023-02-26T12:13:59.159Z,1012.16
2023-02-26T12:14:59.136Z,1012.02
2023-02-26T12:15:59.131Z,1012.12
2023-02-26T12:16:59.106Z,1012.18
2023-02-26T12:17:59.191Z,1012.13